createdAt,value
2022-12-13T00:01:57.622Z,-2.50
2022-12-13T00:04:25.351Z,-2.50
2022-12-13T00:06:54.437Z,-2.50
2022-12-13T00:09:22.349Z,-2.60
2022-12-13T00:11:50.511Z,-2.60
2022-12-13T00:14:18.598Z,-2.60
2022-12-13T00:16:48.448Z,-2.60
2022-12-13T00:19:17.461Z,-2.60
2022-12-13T00:21:45.592Z,-2.70
2022-12-13T00:24:13.673Z,-2.60
2022-12-13T00:26:41.714Z,-2.60
2022-12-13T00:29:11.436Z,-2.60
2022-12-13T00:39:03.054Z,-2.70
2022-12-13T00:41:33.862Z,-2.70
2022-12-13T00:44:02.260Z,-2.80
2022-12-13T00:46:30.471Z,-2.80
2022-12-13T00:49:01.335Z,-2.80
2022-12-13T00:51:31.013Z,-2.80
2022-12-13T00:53:59.930Z,-2.90
2022-12-13T00:56:29.941Z,-2.90
2022-12-13T00:58:57.645Z,-3.00
2022-12-13T01:01:34.532Z,-3.00
2022-12-13T01:04:03.990Z,-2.90
2022-12-13T01:06:41.906Z,-2.90
2022-12-13T01:09:17.712Z,-2.90
2022-12-13T01:11:46.159Z,-2.90
2022-12-13T01:14:13.722Z,-2.90
2022-12-13T01:16:41.382Z,-2.90
2022-12-13T01:19:08.809Z,-2.90
2022-12-13T01:21:36.347Z,-2.90
2022-12-13T01:24:05.670Z,-2.90
2022-12-13T01:26:34.645Z,-2.90
2022-12-13T01:29:02.353Z,-2.90
2022-12-13T01:31:29.741Z,-2.80
2022-12-13T01:33:58.413Z,-2.80
2022-12-13T01:36:27.133Z,-2.80
2022-12-13T01:38:59.533Z,-2.80
2022-12-13T01:41:28.967Z,-2.80
2022-12-13T01:44:03.625Z,-2.70
2022-12-13T01:46:36.329Z,-2.80
2022-12-13T01:49:19.258Z,-2.80
2022-12-13T01:51:59.097Z,-2.80
2022-12-13T01:54:34.063Z,-2.80
2022-12-13T01:57:06.177Z,-2.80
2022-12-13T01:59:36.648Z,-2.80
2022-12-13T02:02:05.310Z,-2.90
2022-12-13T02:04:56.025Z,-2.90
2022-12-13T02:07:27.984Z,-2.90
2022-12-13T02:09:59.400Z,-3.00
2022-12-13T02:12:33.943Z,-3.00
2022-12-13T02:15:15.023Z,-3.00
2022-12-13T02:18:25.172Z,-3.00
2022-12-13T02:21:02.072Z,-3.10
2022-12-13T02:23:32.454Z,-3.10
2022-12-13T02:26:14.905Z,-3.10
2022-12-13T02:28:48.137Z,-3.10
2022-12-13T02:31:20.913Z,-3.20
2022-12-13T02:33:53.993Z,-3.30
2022-12-13T02:36:40.333Z,-3.30
2022-12-13T02:39:39.742Z,-3.30
2022-12-13T02:42:21.868Z,-3.30
2022-12-13T02:45:03.450Z,-3.30
2022-12-13T02:47:31.938Z,-3.30
2022-12-13T02:50:03.015Z,-3.30
2022-12-13T02:52:32.927Z,-3.30
2022-12-13T02:55:00.289Z,-3.30
2022-12-13T02:57:36.128Z,-3.30
2022-12-13T03:00:42.413Z,-3.30
2022-12-13T03:03:47.136Z,-3.30
2022-12-13T03:06:38.346Z,-3.30
2022-12-13T03:09:26.852Z,-3.20
2022-12-13T03:12:27.742Z,-3.20
2022-12-13T03:15:14.885Z,-3.20
2022-12-13T03:17:51.341Z,-3.20
2022-12-13T03:20:56.520Z,-3.20
2022-12-13T03:23:24.517Z,-3.20
2022-12-13T03:25:55.684Z,-3.20
2022-12-13T03:28:23.850Z,-3.10
2022-12-13T03:30:51.497Z,-3.10
2022-12-13T03:33:19.404Z,-3.10
2022-12-13T03:35:47.259Z,-3.10
2022-12-13T03:38:22.670Z,-3.10
2022-12-13T03:40:56.339Z,-3.10
2022-12-13T03:43:24.110Z,-3.10
2022-12-13T03:45:52.873Z,-3.10
2022-12-13T03:48:21.831Z,-3.10
2022-12-13T03:50:54.039Z,-3.10
2022-12-13T03:53:33.511Z,-3.10
2022-12-13T03:56:04.997Z,-3.10
2022-12-13T03:58:35.649Z,-3.10
2022-12-13T04:01:10.524Z,-3.10
2022-12-13T04:03:39.426Z,-3.10
2022-12-13T04:06:07.644Z,-3.10
2022-12-13T04:08:37.012Z,-3.10
2022-12-13T04:11:23.230Z,-3.10
2022-12-13T04:13:50.506Z,-3.10
2022-12-13T04:16:18.135Z,-3.10
2022-12-13T04:18:45.613Z,-3.10
2022-12-13T04:21:12.840Z,-3.20
2022-12-13T04:23:40.339Z,-3.20
2022-12-13T04:26:07.579Z,-3.20
2022-12-13T04:28:35.212Z,-3.30
2022-12-13T04:31:02.702Z,-3.30
2022-12-13T04:33:32.877Z,-3.30
2022-12-13T04:36:00.508Z,-3.40
2022-12-13T04:38:27.929Z,-3.40
2022-12-13T04:41:05.774Z,-3.40
2022-12-13T04:43:33.222Z,-3.40
2022-12-13T04:46:00.804Z,-3.40
2022-12-13T04:48:31.152Z,-3.40
2022-12-13T04:51:01.295Z,-3.40
2022-12-13T04:53:31.839Z,-3.40
2022-12-13T04:55:59.964Z,-3.40
2022-12-13T04:58:27.918Z,-3.40
2022-12-13T05:00:55.285Z,-3.40
2022-12-13T05:03:22.738Z,-3.30
2022-12-13T05:05:50.002Z,-3.40
2022-12-13T05:08:17.488Z,-3.30
2022-12-13T05:10:44.919Z,-3.30
2022-12-13T05:13:12.242Z,-3.30
2022-12-13T05:15:39.494Z,-3.30
2022-12-13T05:18:09.539Z,-3.30
2022-12-13T05:20:39.424Z,-3.30
2022-12-13T05:23:06.809Z,-3.40
2022-12-13T05:25:35.334Z,-3.40
2022-12-13T05:28:08.914Z,-3.40
2022-12-13T05:30:50.042Z,-3.40
2022-12-13T05:33:17.753Z,-3.50
2022-12-13T05:35:47.310Z,-3.60
2022-12-13T05:38:14.667Z,-3.60
2022-12-13T05:40:42.123Z,-3.70
2022-12-13T05:43:21.951Z,-3.70
2022-12-13T05:45:50.249Z,-3.70
2022-12-13T05:48:24.829Z,-3.70
2022-12-13T05:51:10.421Z,-3.70
2022-12-13T05:53:41.049Z,-3.70
2022-12-13T05:56:09.697Z,-3.70
2022-12-13T05:58:38.495Z,-3.70
2022-12-13T06:01:15.752Z,-3.70
2022-12-13T06:03:43.548Z,-3.60
2022-12-13T06:06:12.717Z,-3.60
2022-12-13T06:08:40.667Z,-3.60
2022-12-13T06:11:11.379Z,-3.60
2022-12-13T06:13:44.244Z,-3.60
2022-12-13T06:16:23.707Z,-3.60
2022-12-13T06:19:02.804Z,-3.60
2022-12-13T06:21:43.500Z,-3.60
2022-12-13T06:24:15.556Z,-3.60
2022-12-13T06:26:45.141Z,-3.60
2022-12-13T06:29:23.199Z,-3.50
2022-12-13T06:32:03.073Z,-3.60
2022-12-13T06:34:36.138Z,-3.50
2022-12-13T06:37:08.795Z,-3.50
2022-12-13T06:39:36.281Z,-3.40
2022-12-13T06:42:06.642Z,-3.50
2022-12-13T06:44:35.476Z,-3.50
2022-12-13T06:47:10.210Z,-3.50
2022-12-13T06:49:40.941Z,-3.50
2022-12-13T06:56:34.671Z,-3.40
2022-12-13T06:59:02.464Z,-3.40
2022-12-13T07:01:36.725Z,-3.40
2022-12-13T07:04:28.855Z,-3.30
2022-12-13T07:06:54.475Z,-3.30
2022-12-13T07:09:22.054Z,-3.30
2022-12-13T07:11:52.237Z,-3.30
2022-12-13T07:14:20.545Z,-3.30
2022-12-13T07:16:47.995Z,-3.20
2022-12-13T07:19:23.387Z,-3.20
2022-12-13T07:21:52.882Z,-3.20
2022-12-13T07:24:20.232Z,-3.20
2022-12-13T07:26:47.860Z,-3.20
2022-12-13T07:29:22.223Z,-3.20
2022-12-13T07:31:50.521Z,-3.20
2022-12-13T07:34:17.957Z,-3.20
2022-12-13T07:36:45.337Z,-3.20
2022-12-13T07:39:13.076Z,-3.20
2022-12-13T07:41:40.502Z,-3.10
2022-12-13T07:44:08.115Z,-3.10
2022-12-13T07:46:35.641Z,-3.10
2022-12-13T07:49:04.272Z,-3.00
2022-12-13T07:51:58.700Z,-3.00
2022-12-13T07:54:26.458Z,-3.00
2022-12-13T07:56:53.947Z,-3.00
2022-12-13T07:59:28.888Z,-3.00
2022-12-13T08:01:56.593Z,-3.00
2022-12-13T08:04:24.060Z,-3.00
2022-12-13T08:06:52.061Z,-3.00
2022-12-13T08:09:21.481Z,-3.10
2022-12-13T08:11:49.153Z,-3.10
2022-12-13T08:14:16.556Z,-3.10
2022-12-13T08:16:43.985Z,-3.10
2022-12-13T08:19:11.706Z,-3.10
2022-12-13T08:22:01.255Z,-3.20
2022-12-13T08:24:32.117Z,-3.20
2022-12-13T08:27:05.950Z,-3.20
2022-12-13T08:29:42.522Z,-3.20
2022-12-13T08:32:12.347Z,-3.20
2022-12-13T08:34:43.228Z,-3.30
2022-12-13T08:37:11.966Z,-3.30
2022-12-13T08:39:40.604Z,-3.30
2022-12-13T08:42:18.193Z,-3.30
2022-12-13T08:44:51.557Z,-3.20
2022-12-13T08:47:26.870Z,-3.30
2022-12-13T08:52:52.332Z,-3.30
2022-12-13T08:55:31.426Z,-3.30
2022-12-13T08:58:01.187Z,-3.30
2022-12-13T09:00:36.120Z,-3.20
2022-12-13T09:03:10.249Z,-3.20
2022-12-13T09:05:38.731Z,-3.20
2022-12-13T09:08:23.776Z,-3.20
2022-12-13T09:11:01.323Z,-3.20
2022-12-13T09:13:43.574Z,-3.10
2022-12-13T09:16:23.483Z,-3.10
2022-12-13T09:18:56.501Z,-3.10
2022-12-13T09:21:31.576Z,-3.10
2022-12-13T09:24:01.445Z,-3.00
2022-12-13T09:26:38.338Z,-3.10
2022-12-13T09:29:10.563Z,-3.10
2022-12-13T09:31:40.999Z,-3.10
2022-12-13T09:34:10.352Z,-3.10
2022-12-13T09:39:20.950Z,-3.10
2022-12-13T09:41:53.800Z,-3.10
2022-12-13T09:50:37.095Z,-2.90
2022-12-13T09:53:33.703Z,-2.80
2022-12-13T09:56:14.411Z,-2.70
2022-12-13T10:09:44.733Z,-1.90
2022-12-13T10:12:16.137Z,-1.70
2022-12-13T10:15:02.503Z,-1.50
2022-12-13T10:17:55.993Z,-1.40
2022-12-13T10:20:50.521Z,-1.30
2022-12-13T10:23:47.017Z,-1.10
2022-12-13T10:27:23.459Z,-1.00
2022-12-13T10:38:44.227Z,-0.70
2022-12-13T10:41:38.232Z,-0.70
2022-12-13T10:44:22.684Z,-0.70
2022-12-13T10:47:02.475Z,-0.70
2022-12-13T10:49:39.143Z,-0.70
2022-12-13T10:52:30.753Z,-0.70
2022-12-13T10:55:22.909Z,-0.60
2022-12-13T10:57:54.376Z,-0.60
2022-12-13T11:00:41.994Z,-0.50
2022-12-13T11:03:34.084Z,-0.50
2022-12-13T11:06:15.923Z,-0.50
2022-12-13T11:08:51.328Z,-0.40
2022-12-13T11:11:21.660Z,-0.40
2022-12-13T11:13:54.277Z,-0.40
2022-12-13T11:16:21.715Z,-0.40
2022-12-13T11:18:56.782Z,-0.40
2022-12-13T11:21:26.880Z,-0.30
2022-12-13T11:24:01.520Z,-0.30
2022-12-13T11:26:32.892Z,-0.30
2022-12-13T11:29:15.314Z,-0.20
2022-12-13T11:32:00.134Z,-0.20
2022-12-13T11:34:57.310Z,-0.10
2022-12-13T11:37:41.960Z,-0.10
2022-12-13T11:40:20.787Z,-0.10
2022-12-13T11:43:09.443Z,-0.10
2022-12-13T11:45:46.778Z,0.00
2022-12-13T11:48:27.334Z,0.00
2022-12-13T11:50:56.895Z,0.00
2022-12-13T11:54:01.313Z,0.00
2022-12-13T11:56:34.695Z,0.00
2022-12-13T11:59:21.969Z,0.00
2022-12-13T12:02:07.331Z,0.10
2022-12-13T12:05:01.104Z,0.10
2022-12-13T12:08:31.001Z,0.10
2022-12-13T12:10:50.053Z,0.20
2022-12-13T12:13:31.473Z,0.30
2022-12-13T12:16:08.016Z,0.40
2022-12-13T12:18:35.362Z,0.40
2022-12-13T12:21:17.913Z,0.50
2022-12-13T12:24:15.911Z,0.50
2022-12-13T12:27:07.652Z,0.60
2022-12-13T12:29:50.097Z,0.60
2022-12-13T12:32:20.686Z,0.70
2022-12-13T12:35:13.169Z,0.70
2022-12-13T12:38:10.674Z,0.70
2022-12-13T12:41:29.235Z,0.70
2022-12-13T12:44:19.973Z,0.70
2022-12-13T12:47:01.938Z,0.70
2022-12-13T12:50:11.717Z,0.60
2022-12-13T12:53:10.223Z,0.60
2022-12-13T12:56:05.957Z,0.60
2022-12-13T12:59:04.051Z,0.60
2022-12-13T13:01:53.685Z,0.70
2022-12-13T13:04:29.634Z,0.70
2022-12-13T13:07:04.154Z,0.70
2022-12-13T13:09:55.076Z,0.70
2022-12-13T13:12:30.983Z,0.70
2022-12-13T13:14:59.347Z,0.70
2022-12-13T13:17:26.451Z,0.80
2022-12-13T13:20:21.214Z,0.80
2022-12-13T13:23:10.351Z,0.80
2022-12-13T13:26:00.273Z,0.80
2022-12-13T13:28:26.108Z,0.80
2022-12-13T13:31:10.645Z,0.90
2022-12-13T13:33:57.066Z,0.80
2022-12-13T13:36:47.422Z,0.90
2022-12-13T13:39:20.167Z,0.80
2022-12-13T13:42:17.167Z,0.80
2022-12-13T13:44:50.666Z,0.80
2022-12-13T13:47:39.414Z,0.80
2022-12-13T13:50:13.872Z,0.80
2022-12-13T13:53:05.882Z,0.80
2022-12-13T13:56:10.656Z,0.80
2022-12-13T13:58:47.128Z,0.90
2022-12-13T14:01:44.687Z,0.80
2022-12-13T14:04:43.638Z,0.80
2022-12-13T14:07:39.148Z,0.90
2022-12-13T14:10:24.561Z,0.80
2022-12-13T14:13:31.745Z,0.90
2022-12-13T14:16:07.943Z,0.90
2022-12-13T14:19:13.013Z,0.90
2022-12-13T14:21:46.386Z,0.90
2022-12-13T14:24:30.704Z,0.90
2022-12-13T14:27:13.759Z,1.00
2022-12-13T14:29:48.195Z,1.00
2022-12-13T14:32:26.897Z,1.00
2022-12-13T14:34:56.783Z,1.00
2022-12-13T14:37:32.030Z,1.00
2022-12-13T14:40:25.017Z,1.00
2022-12-13T14:43:32.322Z,1.00
2022-12-13T14:46:02.412Z,1.00
2022-12-13T14:48:34.502Z,0.90
2022-12-13T14:51:02.565Z,0.90
2022-12-13T14:53:38.124Z,0.90
2022-12-13T14:56:27.516Z,0.90
2022-12-13T14:59:02.243Z,0.90
2022-12-13T15:01:35.102Z,0.90
2022-12-13T15:04:27.321Z,0.90
2022-12-13T15:07:20.606Z,0.90
2022-12-13T15:09:55.844Z,0.90
2022-12-13T15:12:34.122Z,0.90
2022-12-13T15:15:16.613Z,0.80
2022-12-13T15:17:43.903Z,0.80
2022-12-13T15:20:33.793Z,0.80
2022-12-13T15:26:41.179Z,0.70
2022-12-13T15:29:10.549Z,0.70
2022-12-13T15:31:40.232Z,0.60
2022-12-13T15:34:30.773Z,0.60
2022-12-13T15:40:16.794Z,0.50
2022-12-13T15:42:49.100Z,0.50
2022-12-13T15:45:34.811Z,0.50
2022-12-13T15:48:05.201Z,0.40
2022-12-13T15:50:47.172Z,0.40
2022-12-13T15:53:37.393Z,0.40
2022-12-13T15:56:32.199Z,0.40
2022-12-13T15:58:59.656Z,0.40
2022-12-13T16:01:37.725Z,0.40
2022-12-13T16:04:15.282Z,0.40
2022-12-13T16:06:53.635Z,0.40
2022-12-13T16:09:22.586Z,0.40
2022-12-13T16:12:00.002Z,0.50
2022-12-13T16:14:34.435Z,0.50
2022-12-13T16:17:08.168Z,0.40
2022-12-13T16:19:36.342Z,0.40
2022-12-13T16:22:08.680Z,0.40
2022-12-13T16:24:37.132Z,0.40
2022-12-13T16:27:08.630Z,0.40
2022-12-13T16:29:36.735Z,0.40
2022-12-13T16:32:07.959Z,0.30
2022-12-13T16:34:37.863Z,0.30
2022-12-13T16:37:09.039Z,0.20
2022-12-13T16:39:52.998Z,0.20
2022-12-13T16:42:20.351Z,0.20
2022-12-13T16:44:48.732Z,0.10
2022-12-13T16:47:27.507Z,0.10
2022-12-13T16:50:10.188Z,0.00
2022-12-13T16:52:39.661Z,0.00
2022-12-13T16:55:08.082Z,0.00
2022-12-13T16:57:35.647Z,0.00
2022-12-13T17:00:03.733Z,0.00
2022-12-13T17:02:30.941Z,0.00
2022-12-13T17:04:59.759Z,0.00
2022-12-13T17:07:35.891Z,0.00
2022-12-13T17:10:06.186Z,0.00
2022-12-13T17:12:33.503Z,0.00
2022-12-13T17:15:02.028Z,0.00
2022-12-13T17:17:29.503Z,0.00
2022-12-13T17:19:57.301Z,0.00
2022-12-13T17:22:24.707Z,0.00
2022-12-13T17:24:52.083Z,-0.10
2022-12-13T17:27:19.605Z,-0.10
2022-12-13T17:29:48.497Z,-0.10
2022-12-13T17:32:15.822Z,-0.10
2022-12-13T17:34:43.085Z,-0.10
2022-12-13T17:37:10.885Z,-0.10
2022-12-13T17:39:38.821Z,-0.10
2022-12-13T17:42:06.530Z,-0.10
2022-12-13T17:44:34.263Z,-0.10
2022-12-13T17:47:02.310Z,-0.10
2022-12-13T17:49:29.902Z,-0.10
2022-12-13T17:54:44.484Z,-0.10
2022-12-13T17:57:12.091Z,-0.10
2022-12-13T17:59:43.157Z,-0.10
2022-12-13T18:02:13.375Z,-0.10
2022-12-13T18:04:42.315Z,-0.10
2022-12-13T18:07:09.653Z,-0.10
2022-12-13T18:09:37.002Z,0.00
2022-12-13T18:12:04.417Z,0.00
2022-12-13T18:14:31.677Z,0.10
2022-12-13T18:17:01.044Z,0.00
2022-12-13T18:19:32.263Z,0.10
2022-12-13T18:22:00.292Z,0.10
2022-12-13T18:24:27.924Z,0.20
2022-12-13T18:26:55.367Z,0.10
2022-12-13T18:29:22.512Z,0.00
2022-12-13T18:31:50.053Z,0.00
2022-12-13T18:34:17.471Z,-0.10
2022-12-13T18:36:44.787Z,-0.10
2022-12-13T18:39:12.689Z,-0.20
2022-12-13T18:42:05.025Z,-0.20
2022-12-13T18:44:33.955Z,-0.20
2022-12-13T18:47:02.486Z,-0.20
2022-12-13T18:49:30.223Z,-0.20
2022-12-13T18:51:59.832Z,-0.20
2022-12-13T18:54:28.149Z,-0.20
2022-12-13T18:56:55.306Z,-0.20
2022-12-13T18:59:25.091Z,-0.20
2022-12-13T19:01:52.645Z,-0.20
2022-12-13T19:04:20.407Z,-0.20
2022-12-13T19:06:48.366Z,-0.20
2022-12-13T19:09:15.759Z,-0.30
2022-12-13T19:11:43.058Z,-0.30
2022-12-13T19:14:10.573Z,-0.30
2022-12-13T19:16:38.244Z,-0.30
2022-12-13T19:19:07.274Z,-0.30
2022-12-13T19:21:37.532Z,-0.30
2022-12-13T19:24:10.921Z,-0.30
2022-12-13T19:27:09.124Z,-0.20
2022-12-13T19:29:36.561Z,-0.20
2022-12-13T19:32:04.395Z,-0.20
2022-12-13T19:34:37.615Z,-0.20
2022-12-13T19:37:06.649Z,-0.30
2022-12-13T19:45:34.569Z,-0.10
2022-12-13T19:48:01.825Z,-0.10
2022-12-13T19:51:01.734Z,0.00
2022-12-13T19:53:30.615Z,0.10
2022-12-13T19:55:58.716Z,0.10
2022-12-13T19:58:26.623Z,0.20
2022-12-13T20:01:00.562Z,0.20
2022-12-13T20:03:28.354Z,0.20
2022-12-13T20:06:00.365Z,0.20
2022-12-13T20:08:27.801Z,0.20
2022-12-13T20:11:03.740Z,0.20
2022-12-13T20:13:32.463Z,0.20
2022-12-13T20:15:59.983Z,0.10
2022-12-13T20:18:27.613Z,0.10
2022-12-13T20:21:11.802Z,0.20
2022-12-13T20:23:39.589Z,0.20
2022-12-13T20:26:10.764Z,0.20
2022-12-13T20:28:38.419Z,0.20
2022-12-13T20:31:48.362Z,0.20
2022-12-13T20:34:15.851Z,0.20
2022-12-13T20:36:43.391Z,0.20
2022-12-13T20:39:13.507Z,0.20
2022-12-13T20:41:40.782Z,0.20
2022-12-13T20:44:09.574Z,0.20
2022-12-13T20:46:37.651Z,0.20
2022-12-13T20:49:06.958Z,0.20
2022-12-13T20:51:35.752Z,0.20
2022-12-13T20:54:02.942Z,0.20
2022-12-13T20:56:34.498Z,0.20
2022-12-13T20:59:06.771Z,0.20
2022-12-13T21:01:38.562Z,0.20
2022-12-13T21:04:07.880Z,0.20
2022-12-13T21:06:37.681Z,0.20
2022-12-13T21:09:06.300Z,0.20
2022-12-13T21:11:45.091Z,0.20
2022-12-13T21:14:21.441Z,0.30
2022-12-13T21:16:52.970Z,0.20
2022-12-13T21:19:22.880Z,0.20
2022-12-13T21:21:50.418Z,0.20
2022-12-13T21:24:19.439Z,0.20
2022-12-13T21:26:47.054Z,0.20
2022-12-13T21:29:16.408Z,0.10
2022-12-13T21:31:48.893Z,0.10
2022-12-13T21:34:17.820Z,0.00
2022-12-13T21:36:54.865Z,0.00
2022-12-13T21:39:30.020Z,0.10
2022-12-13T21:41:58.217Z,0.20
2022-12-13T21:44:25.468Z,0.20
2022-12-13T21:49:41.169Z,0.20
2022-12-13T21:52:08.383Z,0.30
2022-12-13T21:54:35.674Z,0.30
2022-12-13T21:57:22.000Z,0.30
2022-12-13T21:59:49.973Z,0.30
2022-12-13T22:02:19.447Z,0.30
2022-12-13T22:04:52.791Z,0.30
2022-12-13T22:07:20.022Z,0.30
2022-12-13T22:09:48.364Z,0.30
2022-12-13T22:12:24.979Z,0.30
2022-12-13T22:14:53.487Z,0.30
2022-12-13T22:17:27.013Z,0.30
2022-12-13T22:19:58.572Z,0.30
2022-12-13T22:22:25.827Z,0.30
2022-12-13T22:24:53.983Z,0.40
2022-12-13T22:27:26.068Z,0.40
2022-12-13T22:29:58.378Z,0.40
2022-12-13T22:32:28.556Z,0.40
2022-12-13T22:34:56.125Z,0.40
2022-12-13T22:37:25.400Z,0.50
2022-12-13T22:39:52.754Z,0.50
2022-12-13T22:42:20.739Z,0.50
2022-12-13T22:44:48.482Z,0.60
2022-12-13T22:47:16.193Z,0.60
2022-12-13T22:49:43.419Z,0.60
2022-12-13T22:52:10.698Z,0.70
2022-12-13T22:54:38.227Z,0.70
2022-12-13T22:57:06.980Z,0.70
2022-12-13T22:59:34.438Z,0.70
2022-12-13T23:02:03.032Z,0.80
2022-12-13T23:04:32.885Z,0.80
2022-12-13T23:07:00.213Z,0.80
2022-12-13T23:09:27.408Z,0.70
2022-12-13T23:12:12.960Z,0.70
2022-12-13T23:14:40.408Z,0.70
2022-12-13T23:17:07.827Z,0.70
2022-12-13T23:19:49.803Z,0.70
2022-12-13T23:22:22.617Z,0.70
2022-12-13T23:24:51.267Z,0.70
2022-12-13T23:27:22.520Z,0.70
2022-12-13T23:29:50.294Z,0.70
2022-12-13T23:32:17.748Z,0.60
2022-12-13T23:34:45.184Z,0.70
2022-12-13T23:37:12.379Z,0.60
2022-12-13T23:39:39.645Z,0.60
2022-12-13T23:42:07.404Z,0.60
2022-12-13T23:44:34.788Z,0.60
2022-12-13T23:47:02.006Z,0.60
2022-12-13T23:49:29.217Z,0.60
2022-12-13T23:51:56.510Z,0.60
2022-12-13T23:54:23.794Z,0.70
2022-12-13T23:56:51.073Z,0.70
2022-12-13T23:59:19.046Z,0.70
